Time;durP1;ratioP1;P1;durP2;ratioP2;P2;SDS_P1;SDS_P2;PMS_P1;PMS_P2;Temp;Humidity;BMP_temperature;BMP_pressure;BME280_temperature;BME280_humidity;BME280_pressure;Samples;Min_cycle;Max_cycle;Signal;HPM_P1;HPM_P2
2023/06/17 00:02:18;;;;;;;14.53;4.87;;;;;;;-145.69;nan;51996.84;5072573;28;20245;-81
2023/06/17 00:04:45;;;;;;;11.20;4.80;;;;;;;-145.69;nan;51975.06;5072426;28;20202;-81
2023/06/17 00:07:11;;;;;;;9.40;4.30;;;;;;;-145.69;nan;52004.75;5075000;28;20198;-81
2023/06/17 00:09:41;;;;;;;10.67;4.70;;;;;;;-145.69;nan;51984.97;5076466;28;20275;-81
2023/06/17 00:12:09;;;;;;;9.83;5.23;;;;;;;-145.69;nan;51961.19;5076333;28;20202;-81
2023/06/17 00:14:36;;;;;;;9.43;4.67;;;;;;;-145.69;nan;51955.25;5076283;28;20557;-82
2023/06/17 00:17:03;;;;;;;8.63;4.37;;;;;;;-145.69;nan;51982.97;5076065;28;20313;-80
2023/06/17 00:19:29;;;;;;;9.80;4.93;;;;;;;-145.69;nan;51984.97;5076072;28;20210;-81
2023/06/17 00:21:55;;;;;;;8.40;4.77;;;;;;;-145.69;nan;51977.03;5075756;28;20191;-81
2023/06/17 00:24:22;;;;;;;8.47;4.67;;;;;;;-145.69;nan;51988.91;5076261;28;20604;-81
2023/06/17 00:26:50;;;;;;;9.23;5.10;;;;;;;-145.69;nan;51984.97;5076029;28;20206;-81
2023/06/17 00:29:17;;;;;;;6.80;4.20;;;;;;;-145.69;nan;51957.25;5075798;28;20219;-82
2023/06/17 00:31:43;;;;;;;11.93;5.00;;;;;;;-145.69;nan;51986.94;5075823;28;20229;-81
2023/06/17 00:34:10;;;;;;;7.23;4.40;;;;;;;-145.69;nan;51996.84;5076104;28;20206;-82
2023/06/17 00:36:36;;;;;;;7.63;4.67;;;;;;;-145.69;nan;51975.06;5075674;28;20228;-81
2023/06/17 00:39:02;;;;;;;10.43;4.73;;;;;;;-145.69;nan;51977.03;5069426;28;20668;-81
2023/06/17 00:41:29;;;;;;;7.77;4.63;;;;;;;-145.69;nan;51986.94;5056576;28;20200;-81
2023/06/17 00:43:57;;;;;;;9.07;4.50;;;;;;;-145.69;nan;52000.81;5075698;28;20230;-81
2023/06/17 00:46:32;;;;;;;8.97;3.90;;;;;;;-145.69;nan;51977.03;5075541;28;20199;-81
2023/06/17 00:48:59;;;;;;;8.67;4.87;;;;;;;-145.69;nan;51996.84;5075768;28;20226;-81
2023/06/17 00:51:26;;;;;;;9.70;4.60;;;;;;;-145.69;nan;51965.16;5075571;28;20609;-81
2023/06/17 00:53:52;;;;;;;7.87;4.47;;;;;;;-145.69;nan;52000.81;5075308;28;20197;-81
2023/06/17 00:56:19;;;;;;;7.27;4.83;;;;;;;-145.69;nan;51973.06;5075545;28;20207;-81
2023/06/17 00:58:46;;;;;;;12.50;4.90;;;;;;;-145.69;nan;51994.88;5074659;28;20711;-80
2023/06/17 01:01:15;;;;;;;9.37;4.73;;;;;;;-145.69;nan;51971.09;5066475;28;20198;-81
2023/06/17 01:03:41;;;;;;;6.17;4.37;;;;;;;-145.69;nan;51961.19;5075651;28;20290;-80
2023/06/17 01:06:17;;;;;;;10.57;4.07;;;;;;;-145.69;nan;51981.00;5075180;28;20207;-81
2023/06/17 01:08:51;;;;;;;8.00;4.90;;;;;;;-145.69;nan;51975.06;5074258;28;21019;-81
2023/06/17 01:11:22;;;;;;;9.87;5.60;;;;;;;-145.69;nan;52008.72;5074640;28;20249;-80
2023/06/17 01:13:52;;;;;;;10.47;5.23;;;;;;;-145.69;nan;51992.88;5074834;28;20199;-81
2023/06/17 01:16:21;;;;;;;10.33;4.67;;;;;;;-145.69;nan;51941.41;5075190;28;20298;-81
2023/06/17 01:18:48;;;;;;;9.37;4.87;;;;;;;-145.69;nan;52022.59;5074694;28;20195;-80
2023/06/17 01:21:17;;;;;;;7.03;4.40;;;;;;;-145.69;nan;52008.72;5074613;28;20277;-80
2023/06/17 01:23:44;;;;;;;9.33;4.40;;;;;;;-145.69;nan;51994.88;5074697;28;20230;-81
2023/06/17 01:26:13;;;;;;;9.87;4.70;;;;;;;-145.69;nan;51996.84;5074910;28;20207;-81
2023/06/17 01:28:40;;;;;;;7.30;4.20;;;;;;;-145.69;nan;52030.50;5074738;28;20213;-80
2023/06/17 01:31:07;;;;;;;6.50;4.20;;;;;;;-145.69;nan;51981.00;5074767;28;20795;-80
2023/06/17 01:33:35;;;;;;;8.37;4.80;;;;;;;-145.69;nan;51979.03;5074826;28;20256;-81
2023/06/17 01:36:06;;;;;;;7.70;4.57;;;;;;;-145.69;nan;51981.00;5074536;28;20202;-80
2023/06/17 01:38:38;;;;;;;8.03;4.30;;;;;;;-145.69;nan;51977.03;5074683;28;20242;-80
2023/06/17 01:41:10;;;;;;;9.50;4.43;;;;;;;-145.69;nan;51992.88;5074525;28;20206;-80
2023/06/17 01:43:43;;;;;;;9.20;4.67;;;;;;;-145.69;nan;51975.06;5074434;28;20279;-81
2023/06/17 01:46:11;;;;;;;8.63;4.07;;;;;;;-145.69;nan;51988.91;5074789;28;20670;-80
2023/06/17 01:48:38;;;;;;;5.60;4.20;;;;;;;-145.69;nan;51973.06;5074758;28;20586;-80
2023/06/17 01:51:05;;;;;;;14.03;4.67;;;;;;;-145.69;nan;51973.06;5074760;28;20233;-81
2023/06/17 01:53:32;;;;;;;5.83;3.90;;;;;;;-145.69;nan;51988.91;5073881;28;20668;-80
2023/06/17 01:55:59;;;;;;;7.03;4.37;;;;;;;-145.69;nan;51977.03;5074138;28;20225;-80
2023/06/17 01:58:25;;;;;;;10.80;4.60;;;;;;;-145.69;nan;51986.94;5074280;28;20244;-80
2023/06/17 02:00:53;;;;;;;9.83;4.80;;;;;;;-145.69;nan;51963.19;5074387;28;20230;-80
2023/06/17 02:03:20;;;;;;;10.93;4.20;;;;;;;-145.69;nan;51984.97;5073969;28;20658;-80
2023/06/17 02:05:46;;;;;;;7.70;4.50;;;;;;;-145.69;nan;51988.91;5074366;28;20225;-80
2023/06/17 02:08:14;;;;;;;7.80;4.63;;;;;;;-145.69;nan;51988.91;5073651;28;20197;-80
2023/06/17 02:10:43;;;;;;;9.27;4.50;;;;;;;-145.69;nan;51986.94;5073943;28;20342;-81
2023/06/17 02:13:10;;;;;;;8.70;4.50;;;;;;;-145.69;nan;51986.94;5074144;28;20561;-80
2023/06/17 02:15:38;;;;;;;7.70;4.50;;;;;;;-145.69;nan;51973.06;5073665;28;20205;-80
2023/06/17 02:18:07;;;;;;;11.70;3.97;;;;;;;-145.69;nan;52010.69;5073651;28;20599;-80
2023/06/17 02:20:34;;;;;;;9.40;4.23;;;;;;;-145.69;nan;51996.84;5073592;28;20198;-81
2023/06/17 02:23:01;;;;;;;7.87;4.30;;;;;;;-145.69;nan;52002.78;5073941;28;20299;-81
2023/06/17 02:25:27;;;;;;;6.93;4.07;;;;;;;-145.69;nan;52038.44;5073815;28;20199;-79
2023/06/17 02:27:54;;;;;;;6.57;4.17;;;;;;;-145.69;nan;52014.66;5074012;28;20704;-80
2023/06/17 02:30:20;;;;;;;8.03;4.50;;;;;;;-145.69;nan;52008.72;5072627;28;20199;-80
2023/06/17 02:32:47;;;;;;;7.97;4.33;;;;;;;-145.69;nan;52008.72;5074154;28;20684;-80
2023/06/17 02:35:15;;;;;;;11.07;4.40;;;;;;;-145.69;nan;52000.81;5073795;28;20546;-80
2023/06/17 02:37:41;;;;;;;8.40;4.67;;;;;;;-145.69;nan;52016.66;5065749;28;20496;-80
2023/06/17 02:40:11;;;;;;;6.97;4.23;;;;;;;-145.69;nan;52028.53;5073937;28;20263;-80
2023/06/17 02:42:37;;;;;;;8.13;4.40;;;;;;;-145.69;nan;52004.75;5073355;28;20734;-81
2023/06/17 02:45:11;;;;;;;7.33;4.10;;;;;;;-145.69;nan;52008.72;5073492;28;20199;-81
2023/06/17 02:47:37;;;;;;;7.53;4.13;;;;;;;-145.69;nan;52010.69;5073161;28;20234;-81
2023/06/17 02:50:07;;;;;;;9.37;4.27;;;;;;;-145.69;nan;52024.56;5073514;28;20217;-81
2023/06/17 02:52:37;;;;;;;6.10;3.70;;;;;;;-145.69;nan;52014.66;5073220;28;20272;-80
2023/06/17 02:55:04;;;;;;;11.70;3.97;;;;;;;-145.69;nan;52000.81;5073572;28;20203;-81
2023/06/17 02:57:32;;;;;;;10.17;5.00;;;;;;;-145.69;nan;52008.72;5073425;28;20202;-80
2023/06/17 02:59:59;;;;;;;6.23;4.07;;;;;;;-145.69;nan;52002.78;5073295;28;20556;-80
2023/06/17 03:02:26;;;;;;;8.07;4.33;;;;;;;-145.69;nan;52018.63;5073285;28;20550;-79
2023/06/17 03:04:53;;;;;;;7.40;4.40;;;;;;;-145.69;nan;51977.03;5073456;28;20209;-81
2023/06/17 03:07:20;;;;;;;7.20;4.17;;;;;;;-145.69;nan;52004.75;5072870;28;20222;-81
2023/06/17 03:09:48;;;;;;;6.73;3.97;;;;;;;-145.69;nan;52032.47;5073780;28;20199;-81
2023/06/17 03:12:15;;;;;;;6.40;4.23;;;;;;;-145.69;nan;51996.84;5072760;28;20226;-81
2023/06/17 03:14:41;;;;;;;7.70;4.27;;;;;;;-145.69;nan;51998.81;5073257;28;20226;-81
2023/06/17 03:17:10;;;;;;;6.77;3.97;;;;;;;-145.69;nan;51996.84;5073245;28;20283;-81
2023/06/17 03:19:40;;;;;;;7.47;4.00;;;;;;;-145.69;nan;52032.47;5073209;28;20230;-81
2023/06/17 03:22:06;;;;;;;7.47;4.20;;;;;;;-145.69;nan;52024.56;5072682;28;20600;-81
2023/06/17 03:24:36;;;;;;;6.07;4.10;;;;;;;-145.69;nan;52008.72;5073334;28;20202;-81
2023/06/17 03:27:04;;;;;;;8.77;4.17;;;;;;;-145.69;nan;51996.84;5073040;28;20198;-81
2023/06/17 03:29:31;;;;;;;6.27;4.00;;;;;;;-145.69;nan;51996.84;5072643;28;20202;-80
2023/06/17 03:31:57;;;;;;;8.07;3.77;;;;;;;-145.69;nan;52018.63;5072756;28;20226;-80
2023/06/17 03:34:24;;;;;;;8.70;4.60;;;;;;;-145.69;nan;52034.47;5072878;28;20198;-80
2023/06/17 03:36:51;;;;;;;7.40;3.80;;;;;;;-145.69;nan;52016.66;5073119;28;20339;-81
2023/06/17 03:39:17;;;;;;;7.80;4.10;;;;;;;-145.69;nan;52008.72;5072472;28;20198;-79
2023/06/17 03:41:44;;;;;;;6.70;4.07;;;;;;;-145.69;nan;52004.75;5074750;28;20287;-80
2023/06/17 03:44:13;;;;;;;10.07;4.10;;;;;;;-145.69;nan;51992.88;5076975;28;20266;-81
2023/06/17 03:46:40;;;;;;;7.07;3.67;;;;;;;-145.69;nan;52018.63;5076902;28;20752;-81
2023/06/17 03:49:07;;;;;;;9.57;4.03;;;;;;;-145.69;nan;52036.44;5076746;28;20230;-81
2023/06/17 03:51:37;;;;;;;7.93;4.20;;;;;;;-145.69;nan;52018.63;5076090;28;20689;-82
2023/06/17 03:54:05;;;;;;;8.77;4.03;;;;;;;-145.69;nan;51990.91;5076506;28;20199;-81
2023/06/17 03:56:32;;;;;;;9.47;4.40;;;;;;;-145.69;nan;52040.41;5076437;28;20202;-81
2023/06/17 03:59:00;;;;;;;7.60;4.27;;;;;;;-145.69;nan;52036.44;5076363;28;20268;-81
2023/06/17 04:01:28;;;;;;;7.43;4.60;;;;;;;-145.69;nan;52012.69;5076430;28;20287;-81
2023/06/17 04:03:55;;;;;;;8.53;3.93;;;;;;;-145.69;nan;52032.47;5076106;28;20205;-81
2023/06/17 04:06:24;;;;;;;8.63;3.97;;;;;;;-145.69;nan;52002.78;5076494;28;20206;-81
2023/06/17 04:08:51;;;;;;;7.37;3.50;;;;;;;-145.69;nan;52048.31;5076153;28;20225;-80
2023/06/17 04:11:17;;;;;;;8.40;4.77;;;;;;;-145.69;nan;52000.81;5076358;28;20225;-81
2023/06/17 04:13:43;;;;;;;9.03;4.43;;;;;;;-145.69;nan;52018.63;5075876;28;20202;-80
2023/06/17 04:16:11;;;;;;;6.93;3.90;;;;;;;-145.69;nan;51990.91;5076191;28;20653;-80
2023/06/17 04:18:40;;;;;;;6.67;3.90;;;;;;;-145.69;nan;51984.97;5075913;28;20207;-80
2023/06/17 04:21:07;;;;;;;9.27;3.93;;;;;;;-145.69;nan;52012.69;5076195;28;20209;-81
2023/06/17 04:23:33;;;;;;;8.43;3.80;;;;;;;-145.69;nan;51994.88;5075579;28;20226;-80
2023/06/17 04:26:00;;;;;;;6.97;4.30;;;;;;;-145.69;nan;52016.66;5076318;28;20213;-81
2023/06/17 04:28:31;;;;;;;6.50;3.87;;;;;;;-145.69;nan;52016.66;5076313;28;20237;-81
2023/06/17 04:31:04;;;;;;;5.83;3.87;;;;;;;-145.69;nan;51984.97;5076415;28;20253;-81
2023/06/17 04:33:31;;;;;;;11.93;4.00;;;;;;;-145.69;nan;52008.72;5075873;28;20282;-81
2023/06/17 04:35:59;;;;;;;7.10;4.10;;;;;;;-145.69;nan;51982.97;5076045;28;20300;-80
2023/06/17 04:38:30;;;;;;;7.53;3.73;;;;;;;-145.69;nan;52016.66;5075645;28;20554;-80
2023/06/17 04:40:56;;;;;;;11.23;4.90;;;;;;;-145.69;nan;52016.66;5075375;28;20194;-81
2023/06/17 04:43:24;;;;;;;9.83;4.37;;;;;;;-145.69;nan;52016.66;5074885;28;20198;-81
2023/06/17 04:45:51;;;;;;;7.00;4.10;;;;;;;-145.69;nan;52008.72;5069255;28;20588;-81
2023/06/17 04:48:17;;;;;;;9.47;3.80;;;;;;;-145.69;nan;52018.63;5075635;28;20693;-80
2023/06/17 04:50:44;;;;;;;8.60;4.27;;;;;;;-145.69;nan;52008.72;5075841;28;20595;-80
2023/06/17 04:53:13;;;;;;;8.03;4.13;;;;;;;-145.69;nan;52008.72;5074221;28;20249;-81
2023/06/17 04:55:39;;;;;;;8.23;4.00;;;;;;;-145.69;nan;52020.59;5075607;28;20202;-81
2023/06/17 04:58:09;;;;;;;8.93;4.23;;;;;;;-145.69;nan;51994.88;5075990;28;20202;-80
2023/06/17 05:00:47;;;;;;;8.40;4.20;;;;;;;-145.69;nan;51998.81;5075927;28;20202;-80
2023/06/17 05:03:18;;;;;;;9.63;4.33;;;;;;;-145.69;nan;52012.69;5075093;28;20197;-80
2023/06/17 05:05:45;;;;;;;9.93;4.50;;;;;;;-145.69;nan;52010.69;5075444;28;20195;-79
2023/06/17 05:08:13;;;;;;;11.97;4.23;;;;;;;-145.69;nan;51981.00;5075145;28;20653;-80
2023/06/17 05:10:39;;;;;;;6.80;4.13;;;;;;;-145.69;nan;51988.91;5075471;28;20199;-79
2023/06/17 05:13:06;;;;;;;5.43;3.80;;;;;;;-145.69;nan;52032.47;5074551;28;20732;-80
2023/06/17 05:15:32;;;;;;;5.83;3.80;;;;;;;-145.69;nan;51984.97;5075118;28;20198;-80
2023/06/17 05:17:59;;;;;;;8.40;4.10;;;;;;;-145.69;nan;51977.03;5075082;28;20202;-80
2023/06/17 05:20:25;;;;;;;15.53;4.00;;;;;;;-145.69;nan;52004.75;5074863;28;20210;-80
2023/06/17 05:22:52;;;;;;;10.83;4.20;;;;;;;-145.69;nan;51969.13;5075138;28;20224;-80
2023/06/17 05:25:20;;;;;;;5.57;3.70;;;;;;;-145.69;nan;51971.09;5074747;28;20199;-80
2023/06/17 05:27:46;;;;;;;6.93;4.07;;;;;;;-145.69;nan;51971.09;5074892;28;20210;-80
2023/06/17 05:30:13;;;;;;;10.97;4.57;;;;;;;-145.69;nan;51992.88;5074391;28;20244;-80
2023/06/17 05:32:39;;;;;;;6.47;4.30;;;;;;;-145.69;nan;51967.13;5074600;28;20220;-80
2023/06/17 05:35:06;;;;;;;8.15;4.00;;;;;;;-145.69;nan;51975.06;5075300;28;20581;-79
2023/06/17 05:37:33;;;;;;;6.20;3.90;;;;;;;-145.69;nan;51965.16;5074823;28;20214;-80
2023/06/17 05:39:59;;;;;;;4.57;3.40;;;;;;;-145.69;nan;51979.03;5074483;28;20202;-81
2023/06/17 05:42:27;;;;;;;9.32;3.78;;;;;;;-145.69;nan;51913.69;5073624;28;20222;-81
2023/06/17 05:44:54;;;;;;;4.82;3.75;;;;;;;-145.69;nan;51882.00;5074534;28;20228;-80
2023/06/17 05:47:20;;;;;;;6.45;3.50;;;;;;;-145.69;nan;51903.78;5074589;28;20229;-80
2023/06/17 05:49:47;;;;;;;5.18;3.55;;;;;;;-145.69;nan;51905.75;5074639;28;20191;-80
2023/06/17 05:52:13;;;;;;;6.70;3.55;;;;;;;-145.69;nan;51919.63;5074340;28;20236;-80
2023/06/17 05:54:40;;;;;;;4.95;3.70;;;;;;;-145.69;nan;51915.66;5073957;28;20659;-80
2023/06/17 05:57:06;;;;;;;6.63;3.50;;;;;;;-145.69;nan;51889.91;5074264;28;20585;-80
2023/06/17 05:59:34;;;;;;;5.95;3.60;;;;;;;-145.69;nan;51880.00;5073973;28;20203;-80
2023/06/17 06:02:01;;;;;;;9.23;3.55;;;;;;;-145.69;nan;51870.13;5073794;28;20198;-80
2023/06/17 06:04:27;;;;;;;10.23;3.67;;;;;;;-145.69;nan;51880.00;5073135;28;20203;-81
2023/06/17 06:06:56;;;;;;;5.43;3.40;;;;;;;-145.69;nan;51876.06;5074071;28;20608;-80
2023/06/17 06:09:23;;;;;;;8.02;3.28;;;;;;;-145.69;nan;51840.41;5073579;28;20626;-81
2023/06/17 06:11:50;;;;;;;7.07;4.03;;;;;;;-145.69;nan;51866.16;5070435;28;20209;-80
2023/06/17 06:14:16;;;;;;;5.25;3.30;;;;;;;-145.69;nan;51854.28;5074156;28;20199;-81
2023/06/17 06:16:44;;;;;;;11.40;3.85;;;;;;;-145.69;nan;51848.34;5074316;28;20203;-81
2023/06/17 06:19:10;;;;;;;5.57;3.30;;;;;;;-145.69;nan;51868.13;5073705;28;20558;-82
2023/06/17 06:21:38;;;;;;;6.25;3.58;;;;;;;-145.69;nan;51870.13;5073744;28;20218;-81
2023/06/17 06:24:05;;;;;;;5.53;3.55;;;;;;;-145.69;nan;51876.06;5073816;28;20289;-81
2023/06/17 06:26:32;;;;;;;4.95;3.33;;;;;;;-145.69;nan;51866.16;5073743;28;20719;-81
2023/06/17 06:28:59;;;;;;;6.10;3.58;;;;;;;-145.69;nan;51868.13;5073806;28;20206;-81
2023/06/17 06:31:36;;;;;;;10.27;3.78;;;;;;;-145.69;nan;51878.03;5073779;28;20202;-81
2023/06/17 06:34:05;;;;;;;12.15;3.95;;;;;;;-145.69;nan;51878.03;5072947;28;20665;-81
2023/06/17 06:36:32;;;;;;;6.57;3.70;;;;;;;-145.69;nan;51872.09;5074102;28;20213;-82
2023/06/17 06:39:01;;;;;;;5.55;3.90;;;;;;;-145.69;nan;51874.06;5073648;28;20213;-82
2023/06/17 06:41:28;;;;;;;6.50;4.00;;;;;;;-145.69;nan;51854.28;5073131;28;20195;-81
2023/06/17 06:43:54;;;;;;;7.75;3.97;;;;;;;-145.69;nan;51885.94;5073112;28;20653;-82
2023/06/17 06:46:21;;;;;;;5.20;3.70;;;;;;;-145.69;nan;51858.22;5073882;28;20661;-81
2023/06/17 06:48:48;;;;;;;7.57;4.00;;;;;;;-145.69;nan;51858.22;5073443;28;20230;-81
2023/06/17 06:51:15;;;;;;;11.05;4.25;;;;;;;-145.69;nan;51850.31;5073239;28;20206;-82
2023/06/17 06:53:42;;;;;;;7.88;4.30;;;;;;;-145.69;nan;51826.56;5073385;28;20628;-82
2023/06/17 06:56:08;;;;;;;7.05;3.53;;;;;;;-145.69;nan;51840.41;5065744;28;20192;-82
2023/06/17 06:58:41;;;;;;;11.57;4.32;;;;;;;-145.69;nan;51866.16;5053598;28;20207;-83
2023/06/17 07:01:07;;;;;;;7.57;4.57;;;;;;;-145.69;nan;51874.06;5053122;28;20249;-81
2023/06/17 07:03:37;;;;;;;9.82;4.20;;;;;;;-145.69;nan;51834.47;5065297;28;20203;-81
2023/06/17 07:06:06;;;;;;;6.30;3.83;;;;;;;-145.69;nan;51864.16;5072938;28;20289;-81
2023/06/17 07:08:35;;;;;;;7.63;3.97;;;;;;;-145.69;nan;51854.28;5073013;28;20197;-79
2023/06/17 07:11:04;;;;;;;6.53;3.88;;;;;;;-145.69;nan;51850.31;5073620;28;20199;-81
2023/06/17 07:13:33;;;;;;;8.48;4.20;;;;;;;-145.69;nan;51838.44;5073272;28;20237;-81
2023/06/17 07:16:00;;;;;;;11.93;4.05;;;;;;;-145.69;nan;51844.38;5072408;28;20206;-80
2023/06/17 07:18:33;;;;;;;7.00;4.05;;;;;;;-145.69;nan;51844.38;5073132;28;20260;-80
2023/06/17 07:21:00;;;;;;;8.85;4.25;;;;;;;-145.69;nan;51838.44;5073134;28;20661;-80
2023/06/17 07:23:26;;;;;;;10.02;4.50;;;;;;;-145.69;nan;51830.50;5073442;28;20203;-82
2023/06/17 07:25:57;;;;;;;8.50;4.10;;;;;;;-145.69;nan;51826.56;5073155;28;20625;-82
2023/06/17 07:28:24;;;;;;;7.32;4.45;;;;;;;-145.69;nan;51810.72;5072168;28;20285;-83
2023/06/17 07:30:51;;;;;;;31.17;12.93;;;;;;;-145.69;nan;51834.47;5073409;28;20204;-83
2023/06/17 07:33:21;;;;;;;13.52;5.28;;;;;;;-145.69;nan;51824.56;5073001;28;20230;-82
2023/06/17 07:35:47;;;;;;;8.70;4.22;;;;;;;-145.69;nan;51826.56;5073213;28;20198;-82
2023/06/17 07:38:17;;;;;;;6.70;4.07;;;;;;;-145.69;nan;51822.59;5072982;28;20203;-82
2023/06/17 07:40:46;;;;;;;11.35;4.57;;;;;;;-145.69;nan;51836.44;5072999;28;20289;-84
2023/06/17 07:43:23;;;;;;;12.65;4.55;;;;;;;-145.69;nan;51812.69;5073788;28;20210;-83
2023/06/17 07:45:53;;;;;;;9.55;3.95;;;;;;;-145.69;nan;51828.53;5072074;28;20220;-82
2023/06/17 07:48:19;;;;;;;9.75;4.60;;;;;;;-145.69;nan;51818.63;5071256;28;20644;-81
2023/06/17 07:50:46;;;;;;;6.93;3.88;;;;;;;-145.69;nan;51814.66;5071307;28;20717;-81
2023/06/17 07:53:18;;;;;;;7.43;4.32;;;;;;;-145.69;nan;51806.75;5071159;28;20325;-81
2023/06/17 07:55:45;;;;;;;7.53;3.83;;;;;;;-145.69;nan;51820.59;5070744;28;20577;-78
2023/06/17 07:58:13;;;;;;;9.18;4.05;;;;;;;-145.69;nan;51818.63;5070809;28;20199;-77
2023/06/17 08:00:41;;;;;;;7.03;4.38;;;;;;;-145.69;nan;51779.03;5071283;28;20198;-78
2023/06/17 08:03:08;;;;;;;8.35;4.03;;;;;;;-145.69;nan;51830.50;5072495;28;20561;-78
2023/06/17 08:05:36;;;;;;;10.57;4.15;;;;;;;-145.69;nan;51818.63;5072199;28;20207;-77
2023/06/17 08:08:02;;;;;;;7.82;4.10;;;;;;;-145.69;nan;51798.81;5072284;28;20198;-78
2023/06/17 08:10:30;;;;;;;5.43;3.85;;;;;;;-145.69;nan;51824.56;5072147;28;20194;-78
2023/06/17 08:12:58;;;;;;;8.30;3.88;;;;;;;-145.69;nan;51808.72;5072713;28;20223;-78
2023/06/17 08:15:27;;;;;;;8.30;3.85;;;;;;;-145.69;nan;51830.50;5072191;28;20198;-78
2023/06/17 08:17:55;;;;;;;5.90;3.85;;;;;;;-145.69;nan;51806.75;5072570;28;20632;-78
2023/06/17 08:20:23;;;;;;;6.05;3.83;;;;;;;-145.69;nan;51830.50;5072463;28;20199;-78
2023/06/17 08:22:50;;;;;;;7.45;3.65;;;;;;;-145.69;nan;51826.56;5072371;28;20624;-78
2023/06/17 08:25:20;;;;;;;9.32;4.47;;;;;;;-145.69;nan;51763.19;5072372;28;20195;-78
2023/06/17 08:27:57;;;;;;;7.05;4.07;;;;;;;-145.69;nan;51775.06;5073032;28;20285;-78
2023/06/17 08:30:27;;;;;;;7.82;4.28;;;;;;;-145.69;nan;51783.00;5075337;28;20434;-78
2023/06/17 08:32:57;;;;;;;5.95;4.05;;;;;;;-145.69;nan;51783.00;5075835;28;20705;-79
2023/06/17 08:35:24;;;;;;;9.90;4.20;;;;;;;-145.69;nan;51763.19;5075314;28;20246;-79
2023/06/17 08:37:50;;;;;;;6.50;4.10;;;;;;;-145.69;nan;51771.09;5076133;28;20245;-78
2023/06/17 08:40:17;;;;;;;6.72;3.40;;;;;;;-145.69;nan;51779.03;5075927;28;20213;-80
2023/06/17 08:42:48;;;;;;;6.43;3.80;;;;;;;-145.69;nan;51773.09;5076121;28;20249;-79
2023/06/17 08:45:22;;;;;;;10.18;4.25;;;;;;;-145.69;nan;51759.22;5075599;28;20195;-77
2023/06/17 08:47:51;;;;;;;8.10;4.15;;;;;;;-145.69;nan;51743.38;5075376;28;20224;-78
2023/06/17 08:50:20;;;;;;;10.00;3.72;;;;;;;-145.69;nan;51755.25;5075522;28;20209;-78
2023/06/17 08:52:48;;;;;;;10.18;3.90;;;;;;;-145.69;nan;51798.81;5075416;28;20252;-75
2023/06/17 08:55:15;;;;;;;5.90;4.10;;;;;;;-145.69;nan;51794.88;5075020;28;20207;-75
2023/06/17 08:57:43;;;;;;;6.35;4.13;;;;;;;-145.69;nan;51763.19;5075040;28;20649;-76
2023/06/17 09:00:10;;;;;;;7.45;4.10;;;;;;;-145.69;nan;51775.06;5075183;28;20556;-76
2023/06/17 09:02:37;;;;;;;6.63;3.80;;;;;;;-145.69;nan;51767.16;5065265;28;20532;-75
2023/06/17 09:05:08;;;;;;;9.07;3.90;;;;;;;-145.69;nan;51757.25;5074648;28;20208;-77
2023/06/17 09:07:37;;;;;;;7.90;3.72;;;;;;;-145.69;nan;51741.41;5075111;28;20289;-76
2023/06/17 09:10:10;;;;;;;15.55;4.13;;;;;;;-145.69;nan;51755.25;5075019;28;20233;-76
2023/06/17 09:12:38;;;;;;;7.43;3.65;;;;;;;-145.69;nan;51759.22;5074474;28;20194;-76
2023/06/17 09:15:06;;;;;;;14.82;3.80;;;;;;;-145.69;nan;51783.00;5074365;28;20534;-76
2023/06/17 09:17:33;;;;;;;14.95;4.10;;;;;;;-145.69;nan;51788.94;5075251;28;20229;-77
2023/06/17 09:20:10;;;;;;;11.35;4.60;;;;;;;-145.69;nan;51749.31;5075030;28;20570;-76
2023/06/17 09:22:39;;;;;;;8.35;3.83;;;;;;;-145.69;nan;51749.31;5074753;28;20313;-77
2023/06/17 09:25:11;;;;;;;8.65;3.92;;;;;;;-145.69;nan;51739.44;5074379;28;20206;-77
2023/06/17 09:27:37;;;;;;;7.30;3.88;;;;;;;-145.69;nan;51743.38;5074694;28;20211;-77
2023/06/17 09:30:10;;;;;;;9.70;3.78;;;;;;;-145.69;nan;51743.38;5074225;28;20252;-77
2023/06/17 09:32:40;;;;;;;6.05;3.70;;;;;;;-145.69;nan;51775.06;5074164;28;20654;-76
2023/06/17 09:35:14;;;;;;;8.38;4.13;;;;;;;-145.69;nan;51798.81;5074065;28;20561;-75
2023/06/17 09:37:42;;;;;;;7.13;3.70;;;;;;;-145.69;nan;51810.72;5074435;28;20198;-77
2023/06/17 09:40:10;;;;;;;7.32;3.88;;;;;;;-145.69;nan;51763.19;5073612;28;20202;-76
2023/06/17 09:42:36;;;;;;;9.88;4.00;;;;;;;-145.69;nan;51761.22;5074409;28;20231;-76
2023/06/17 09:45:07;;;;;;;8.82;4.05;;;;;;;-145.69;nan;51751.31;5073768;28;20228;-76
2023/06/17 09:47:34;;;;;;;6.93;3.95;;;;;;;-145.69;nan;51786.94;5074226;28;20272;-77
2023/06/17 09:50:04;;;;;;;7.20;3.80;;;;;;;-145.69;nan;51759.22;5074362;28;20202;-77
2023/06/17 09:52:35;;;;;;;7.97;3.75;;;;;;;-145.69;nan;51775.06;5073511;28;20825;-77
2023/06/17 09:55:07;;;;;;;9.85;4.15;;;;;;;-145.69;nan;51763.19;5073554;28;20222;-78
2023/06/17 09:57:36;;;;;;;5.80;3.90;;;;;;;-145.69;nan;51794.88;5074159;28;20230;-78
2023/06/17 10:00:10;;;;;;;10.05;4.10;;;;;;;-145.69;nan;51749.31;5074123;28;20227;-77
2023/06/17 10:02:37;;;;;;;8.50;3.83;;;;;;;-145.69;nan;51749.31;5074241;28;20234;-78
2023/06/17 10:05:04;;;;;;;6.47;4.28;;;;;;;-145.69;nan;51761.22;5073760;28;20195;-77
2023/06/17 10:07:32;;;;;;;9.10;3.75;;;;;;;-145.69;nan;51779.03;5073724;28;20201;-77
2023/06/17 10:10:00;;;;;;;9.13;3.80;;;;;;;-145.69;nan;51739.44;5073738;28;20205;-77
2023/06/17 10:12:28;;;;;;;7.35;3.67;;;;;;;-145.69;nan;51767.16;5073875;28;20202;-78
2023/06/17 10:14:56;;;;;;;5.72;3.58;;;;;;;-145.69;nan;51725.56;5073428;28;20223;-78
2023/06/17 10:17:25;;;;;;;5.75;3.72;;;;;;;-145.69;nan;51755.25;5073677;28;20199;-78
2023/06/17 10:19:53;;;;;;;15.10;4.13;;;;;;;-145.69;nan;51721.59;5073769;28;20198;-78
2023/06/17 10:22:22;;;;;;;7.30;3.65;;;;;;;-145.69;nan;51747.34;5073893;28;20228;-78
2023/06/17 10:24:50;;;;;;;7.72;3.80;;;;;;;-145.69;nan;51763.19;5073294;28;20206;-78
2023/06/17 10:27:20;;;;;;;6.30;3.40;;;;;;;-145.69;nan;51739.44;5073565;28;20205;-78
2023/06/17 10:29:49;;;;;;;5.63;3.80;;;;;;;-145.69;nan;51723.59;5073491;28;20289;-77
2023/06/17 10:32:19;;;;;;;8.30;3.70;;;;;;;-145.69;nan;51721.59;5073466;28;20608;-77
2023/06/17 10:35:10;;;;;;;7.80;3.58;;;;;;;-145.69;nan;51727.53;5073077;28;20258;-78
2023/06/17 10:37:42;;;;;;;5.85;3.63;;;;;;;-145.69;nan;51743.38;5073439;28;20203;-77
2023/06/17 10:40:25;;;;;;;9.52;3.75;;;;;;;-145.69;nan;51749.31;5073221;28;20649;-76
2023/06/17 10:42:57;;;;;;;4.65;3.30;;;;;;;-145.69;nan;51739.44;5073435;28;20259;-77
2023/06/17 10:45:30;;;;;;;8.55;3.78;;;;;;;-145.69;nan;51755.25;5073092;28;20195;-76
2023/06/17 10:48:21;;;;;;;6.43;3.53;;;;;;;-145.69;nan;51729.53;5073223;28;20238;-77
2023/06/17 10:50:52;;;;;;;5.60;4.03;;;;;;;-145.69;nan;51759.22;5072381;28;20198;-78
2023/06/17 10:53:27;;;;;;;7.63;3.80;;;;;;;-145.69;nan;51707.75;5073270;28;20275;-78
2023/06/17 10:55:56;;;;;;;5.55;3.80;;;;;;;-145.69;nan;51707.75;5071434;28;20197;-77
2023/06/17 10:58:23;;;;;;;6.25;3.70;;;;;;;-145.69;nan;51715.66;5053310;28;20289;-77
2023/06/17 11:01:02;;;;;;;6.70;3.45;;;;;;;-145.69;nan;51721.59;5066198;28;20206;-78
2023/06/17 11:03:32;;;;;;;7.63;3.70;;;;;;;-145.69;nan;51727.53;5073159;28;20652;-76
2023/06/17 11:06:03;;;;;;;5.75;3.88;;;;;;;-145.69;nan;51713.69;5072719;28;20205;-77
2023/06/17 11:08:30;;;;;;;9.82;3.65;;;;;;;-145.69;nan;51753.28;5073203;28;20281;-77
2023/06/17 11:11:22;;;;;;;6.63;4.13;;;;;;;-145.69;nan;51701.81;5073071;28;20253;-78
2023/06/17 11:13:50;;;;;;;6.38;3.67;;;;;;;-145.69;nan;51775.06;5062443;28;20249;-78
2023/06/17 11:16:17;;;;;;;4.72;3.25;;;;;;;-145.69;nan;51763.19;5072619;28;20646;-77
2023/06/17 11:18:47;;;;;;;6.43;3.42;;;;;;;-145.69;nan;51737.44;5073252;28;20226;-78
2023/06/17 11:21:15;;;;;;;6.22;3.85;;;;;;;-145.69;nan;51733.50;5072902;28;20205;-77
2023/06/17 11:23:53;;;;;;;8.20;3.55;;;;;;;-145.69;nan;51735.47;5072915;28;20198;-78
2023/06/17 11:26:20;;;;;;;4.90;3.20;;;;;;;-145.69;nan;51761.22;5072642;28;20194;-78
2023/06/17 11:28:49;;;;;;;10.25;3.55;;;;;;;-145.69;nan;51735.47;5072865;28;20222;-78
2023/06/17 11:31:25;;;;;;;5.70;3.65;;;;;;;-145.69;nan;51701.81;5073168;28;20237;-78
2023/06/17 11:34:01;;;;;;;7.97;4.15;;;;;;;-145.69;nan;51705.75;5072356;28;20562;-78
2023/06/17 11:36:31;;;;;;;6.70;3.83;;;;;;;-145.69;nan;51693.88;5073242;28;20202;-77
2023/06/17 11:38:57;;;;;;;7.47;4.07;;;;;;;-145.69;nan;51711.72;5072602;28;20228;-76